createdAt,value
2018-09-09T00:00:41.625Z,935.11
2018-09-09T00:01:41.585Z,935.15
2018-09-09T00:02:41.543Z,935.17
2018-09-09T00:03:41.474Z,935.20
2018-09-09T00:04:41.438Z,935.17
2018-09-09T00:05:41.394Z,935.26
2018-09-09T00:06:41.354Z,935.23
2018-09-09T00:07:41.299Z,935.21
2018-09-09T00:08:41.247Z,935.23
2018-09-09T00:09:41.213Z,935.27
2018-09-09T00:10:41.152Z,935.25
2018-09-09T00:11:41.104Z,935.21
2018-09-09T00:12:41.055Z,935.22
2018-09-09T00:13:41.020Z,935.22
2018-09-09T00:14:40.958Z,935.24
2018-09-09T00:15:40.909Z,935.25
2018-09-09T00:16:40.867Z,935.27
2018-09-09T00:17:40.825Z,935.26
2018-09-09T00:18:40.765Z,935.29
2018-09-09T00:19:40.737Z,935.28
2018-09-09T00:20:40.665Z,935.26
2018-09-09T00:21:40.625Z,935.25
2018-09-09T00:22:40.571Z,935.25
2018-09-09T00:23:40.532Z,935.21
2018-09-09T00:24:40.483Z,935.25
2018-09-09T00:25:40.432Z,935.24
2018-09-09T00:26:40.394Z,935.24
2018-09-09T00:27:40.347Z,935.22
2018-09-09T00:28:40.304Z,935.25
2018-09-09T00:29:40.240Z,935.24
2018-09-09T00:30:40.188Z,935.26
2018-09-09T00:31:40.144Z,935.27
2018-09-09T00:32:40.093Z,935.28
2018-09-09T00:33:40.064Z,935.23
2018-09-09T00:34:40.002Z,935.22
2018-09-09T00:35:39.960Z,935.22
2018-09-09T00:36:39.914Z,935.20
2018-09-09T00:37:39.859Z,935.18
2018-09-09T00:38:39.818Z,935.21
2018-09-09T00:39:39.769Z,935.22
2018-09-09T00:40:39.726Z,935.19
2018-09-09T00:41:39.671Z,935.17
2018-09-09T00:42:39.628Z,935.20
2018-09-09T00:43:39.558Z,935.20
2018-09-09T00:44:39.531Z,935.15
2018-09-09T00:45:39.465Z,935.17
2018-09-09T00:46:39.435Z,935.17
2018-09-09T00:47:39.381Z,935.13
2018-09-09T00:48:39.329Z,935.22
2018-09-09T00:49:39.291Z,935.21
2018-09-09T00:50:39.236Z,935.16
2018-09-09T00:51:39.204Z,935.14
2018-09-09T00:52:39.142Z,935.12
2018-09-09T00:53:39.094Z,935.13
2018-09-09T00:54:39.057Z,935.14
2018-09-09T00:55:38.990Z,935.14
2018-09-09T00:56:38.947Z,935.24
2018-09-09T00:57:38.907Z,935.19
2018-09-09T00:58:38.865Z,935.16
2018-09-09T00:59:38.814Z,935.16
2018-09-09T01:00:38.769Z,935.17
2018-09-09T01:01:38.699Z,935.11
2018-09-09T01:02:38.651Z,935.16
2018-09-09T01:03:38.611Z,935.12
2018-09-09T01:04:38.572Z,935.15
2018-09-09T01:05:38.512Z,935.15
2018-09-09T01:06:38.466Z,935.19
2018-09-09T01:07:38.425Z,935.12
2018-09-09T01:08:38.375Z,935.13
2018-09-09T01:09:38.337Z,935.16
2018-09-09T01:10:38.277Z,935.12
2018-09-09T01:11:38.245Z,935.14
2018-09-09T01:12:38.184Z,935.18
2018-09-09T01:13:38.136Z,935.16
2018-09-09T01:14:38.087Z,935.21
2018-09-09T01:15:38.036Z,935.25
2018-09-09T01:16:37.988Z,935.21
2018-09-09T01:17:37.942Z,935.19
2018-09-09T01:18:37.895Z,935.20
2018-09-09T01:19:37.851Z,935.15
2018-09-09T01:20:37.795Z,935.13
2018-09-09T01:21:37.741Z,935.18
2018-09-09T01:22:37.717Z,935.19
2018-09-09T01:23:37.657Z,935.14
2018-09-09T01:24:37.607Z,935.19
2018-09-09T01:25:37.557Z,935.17
2018-09-09T01:26:37.515Z,935.13
2018-09-09T01:27:37.469Z,935.12
2018-09-09T01:28:37.418Z,935.17
2018-09-09T01:29:37.377Z,935.19
2018-09-09T01:30:37.323Z,935.20
2018-09-09T01:31:37.277Z,935.18
2018-09-09T01:32:37.225Z,935.20
2018-09-09T01:33:37.177Z,935.18
2018-09-09T01:34:37.134Z,935.24
2018-09-09T01:35:37.083Z,935.20
2018-09-09T01:36:37.038Z,935.18
2018-09-09T01:37:36.990Z,935.13
2018-09-09T01:38:36.940Z,935.19
2018-09-09T01:39:36.900Z,935.24
2018-09-09T01:40:36.879Z,935.21
2018-09-09T01:41:36.792Z,935.21
2018-09-09T01:42:36.749Z,935.24
2018-09-09T01:43:36.691Z,935.23
2018-09-09T01:44:36.652Z,935.24
2018-09-09T01:45:36.605Z,935.16
2018-09-09T01:46:36.558Z,935.17
2018-09-09T01:47:36.511Z,935.17
2018-09-09T01:48:36.450Z,935.18
2018-09-09T01:49:36.414Z,935.15
2018-09-09T01:50:36.380Z,935.18
2018-09-09T01:51:36.323Z,935.16
2018-09-09T01:52:36.274Z,935.19
2018-09-09T01:53:36.249Z,935.15
2018-09-09T01:54:36.179Z,935.18
2018-09-09T01:55:36.131Z,935.16
2018-09-09T01:56:36.079Z,935.15
2018-09-09T01:57:36.044Z,935.14
2018-09-09T01:58:35.984Z,935.13
2018-09-09T01:59:35.945Z,935.17
2018-09-09T02:00:35.873Z,935.20
2018-09-09T02:01:35.851Z,935.20
2018-09-09T02:02:35.792Z,935.19
2018-09-09T02:03:35.748Z,935.17
2018-09-09T02:04:35.705Z,935.15
2018-09-09T02:05:35.631Z,935.14
2018-09-09T02:06:35.603Z,935.12
2018-09-09T02:07:35.554Z,935.12
2018-09-09T02:08:35.507Z,935.11
2018-09-09T02:09:35.441Z,935.12
2018-09-09T02:10:35.418Z,935.10
2018-09-09T02:11:35.366Z,935.10
2018-09-09T02:12:35.314Z,935.05
2018-09-09T02:13:35.261Z,935.03
2018-09-09T02:14:35.222Z,935.06
2018-09-09T02:15:35.183Z,935.00
2018-09-09T02:16:35.123Z,934.98
2018-09-09T02:17:35.061Z,934.96
2018-09-09T02:18:35.036Z,934.94
2018-09-09T02:19:34.973Z,934.97
2018-09-09T02:20:34.927Z,934.94
2018-09-09T02:21:34.867Z,934.95
2018-09-09T02:22:34.852Z,934.92
2018-09-09T02:23:34.791Z,934.94
2018-09-09T02:24:34.749Z,934.90
2018-09-09T02:25:34.702Z,934.88
2018-09-09T02:26:34.646Z,934.92
2018-09-09T02:27:34.583Z,934.87
2018-09-09T02:28:34.566Z,934.85
2018-09-09T02:29:34.504Z,934.79
2018-09-09T02:30:34.437Z,934.81
2018-09-09T02:31:34.411Z,934.81
2018-09-09T02:32:34.357Z,934.82
2018-09-09T02:33:34.309Z,934.75
2018-09-09T02:34:34.260Z,934.77
2018-09-09T02:35:34.225Z,934.81
2018-09-09T02:36:34.161Z,934.76
2018-09-09T02:37:34.118Z,934.71
2018-09-09T02:38:34.065Z,934.72
2018-09-09T02:39:34.009Z,934.71
2018-09-09T02:40:33.971Z,934.69
2018-09-09T02:41:33.926Z,934.71
2018-09-09T02:42:33.877Z,934.70
2018-09-09T02:43:33.859Z,934.70
2018-09-09T02:44:33.791Z,934.71
2018-09-09T02:45:33.736Z,934.79
2018-09-09T02:46:33.686Z,934.69
2018-09-09T02:47:33.630Z,934.73
2018-09-09T02:48:33.597Z,934.67
2018-09-09T02:49:33.543Z,934.64
2018-09-09T02:50:33.493Z,934.60
2018-09-09T02:51:33.451Z,934.62
2018-09-09T02:52:33.401Z,934.67
2018-09-09T02:53:33.353Z,934.65
2018-09-09T02:54:33.313Z,934.67
2018-09-09T02:55:33.252Z,934.65
2018-09-09T02:56:33.193Z,934.62
2018-09-09T02:57:33.166Z,934.63
2018-09-09T02:58:33.106Z,934.54
2018-09-09T02:59:33.066Z,934.57
2018-09-09T03:00:33.017Z,934.60
2018-09-09T03:01:32.975Z,934.61
2018-09-09T03:02:32.907Z,934.60
2018-09-09T03:03:32.872Z,934.64
2018-09-09T03:04:32.826Z,934.56
2018-09-09T03:05:32.787Z,934.59
2018-09-09T03:06:32.735Z,934.59
2018-09-09T03:07:32.682Z,934.56
2018-09-09T03:08:32.633Z,934.59
2018-09-09T03:09:32.576Z,934.50
2018-09-09T03:10:32.536Z,934.52
2018-09-09T03:11:32.504Z,934.54
2018-09-09T03:12:32.438Z,934.53
2018-09-09T03:13:32.400Z,934.49
2018-09-09T03:14:32.353Z,934.55
2018-09-09T03:15:32.285Z,934.49
2018-09-09T03:16:32.248Z,934.49
2018-09-09T03:17:32.200Z,934.52
2018-09-09T03:18:32.155Z,934.46
2018-09-09T03:19:32.099Z,934.45
2018-09-09T03:20:32.052Z,934.45
2018-09-09T03:21:32.007Z,934.42
2018-09-09T03:22:31.962Z,934.49
2018-09-09T03:23:31.918Z,934.45
2018-09-09T03:24:31.880Z,934.44
2018-09-09T03:25:31.817Z,934.43
2018-09-09T03:26:31.777Z,934.44
2018-09-09T03:27:31.723Z,934.43
2018-09-09T03:28:31.746Z,934.39
2018-09-09T03:29:31.642Z,934.41
2018-09-09T03:30:31.569Z,934.39
2018-09-09T03:31:31.549Z,934.42
2018-09-09T03:32:31.482Z,934.41
2018-09-09T03:33:31.438Z,934.42
2018-09-09T03:34:31.384Z,934.33
2018-09-09T03:35:31.340Z,934.34
2018-09-09T03:36:31.305Z,934.32
2018-09-09T03:37:31.259Z,934.32
2018-09-09T03:38:31.194Z,934.33
2018-09-09T03:39:31.150Z,934.29
2018-09-09T03:40:31.124Z,934.27
2018-09-09T03:41:31.037Z,934.28
2018-09-09T03:42:31.008Z,934.31
2018-09-09T03:43:30.956Z,934.30
2018-09-09T03:44:30.903Z,934.29
2018-09-09T03:45:30.867Z,934.27
2018-09-09T03:46:30.808Z,934.28
2018-09-09T03:47:30.769Z,934.24
2018-09-09T03:48:30.738Z,934.20
2018-09-09T03:49:30.670Z,934.23
2018-09-09T03:50:30.616Z,934.21
2018-09-09T03:51:30.577Z,934.19
2018-09-09T03:52:30.521Z,934.19
2018-09-09T03:53:30.479Z,934.23
2018-09-09T03:54:30.434Z,934.24
2018-09-09T03:55:30.382Z,934.17
2018-09-09T03:56:30.343Z,934.14
2018-09-09T03:57:30.293Z,934.20
2018-09-09T03:58:30.243Z,934.16
2018-09-09T03:59:30.193Z,934.16
2018-09-09T04:00:30.138Z,934.15
2018-09-09T04:01:30.093Z,934.16
2018-09-09T04:02:30.036Z,934.09
2018-09-09T04:03:30.006Z,934.12
2018-09-09T04:04:29.951Z,934.11
2018-09-09T04:05:29.902Z,934.06
2018-09-09T04:06:29.861Z,934.04
2018-09-09T04:07:29.819Z,934.05
2018-09-09T04:08:29.758Z,934.05
2018-09-09T04:09:29.715Z,934.04
2018-09-09T04:10:29.657Z,934.08
2018-09-09T04:11:29.626Z,934.01
2018-09-09T04:12:29.573Z,934.01
2018-09-09T04:13:29.530Z,934.01
2018-09-09T04:14:29.475Z,933.99
2018-09-09T04:15:29.434Z,933.94
2018-09-09T04:16:29.384Z,934.00
2018-09-09T04:17:29.341Z,933.97
2018-09-09T04:18:29.279Z,933.94
2018-09-09T04:19:29.236Z,933.94
2018-09-09T04:20:29.193Z,933.89
2018-09-09T04:21:29.139Z,933.89
2018-09-09T04:22:29.077Z,933.86
2018-09-09T04:23:29.051Z,933.84
2018-09-09T04:24:28.995Z,933.84
2018-09-09T04:25:28.936Z,933.81
2018-09-09T04:26:28.904Z,933.83
2018-09-09T04:27:28.850Z,933.80
2018-09-09T04:28:28.806Z,933.77
2018-09-09T04:29:28.774Z,933.74
2018-09-09T04:30:28.724Z,933.72
2018-09-09T04:31:28.671Z,933.67
2018-09-09T04:32:28.618Z,933.66
2018-09-09T04:33:28.566Z,933.72
2018-09-09T04:34:28.517Z,933.70
2018-09-09T04:35:28.472Z,933.67
2018-09-09T04:36:28.422Z,933.71
2018-09-09T04:37:28.381Z,933.64
2018-09-09T04:38:28.326Z,933.67
2018-09-09T04:39:28.275Z,933.64
2018-09-09T04:40:28.241Z,933.61
2018-09-09T04:41:28.186Z,933.62
2018-09-09T04:42:28.132Z,933.57
2018-09-09T04:43:28.082Z,933.61
2018-09-09T04:44:28.021Z,933.52
2018-09-09T04:45:27.972Z,933.50
2018-09-09T04:46:27.979Z,933.52
2018-09-09T04:47:27.891Z,933.54
2018-09-09T04:48:27.828Z,933.51
2018-09-09T04:49:27.804Z,933.46
2018-09-09T04:50:27.746Z,933.45
2018-09-09T04:51:27.715Z,933.46
2018-09-09T04:52:27.652Z,933.49
2018-09-09T04:53:27.606Z,933.48
2018-09-09T04:54:27.563Z,933.48
2018-09-09T04:55:27.536Z,933.46
2018-09-09T04:56:27.454Z,933.45
2018-09-09T04:57:27.411Z,933.42
2018-09-09T04:58:27.363Z,933.45
2018-09-09T04:59:27.315Z,933.43
2018-09-09T05:00:27.266Z,933.44
2018-09-09T05:01:27.268Z,933.46
2018-09-09T05:02:27.170Z,933.42
2018-09-09T05:03:27.135Z,933.37
2018-09-09T05:04:27.070Z,933.38
2018-09-09T05:05:27.035Z,933.40
2018-09-09T05:06:26.979Z,933.38
2018-09-09T05:07:26.930Z,933.36
2018-09-09T05:08:26.885Z,933.34
2018-09-09T05:09:26.842Z,933.34
2018-09-09T05:10:26.785Z,933.35
2018-09-09T05:11:26.738Z,933.31
2018-09-09T05:12:26.686Z,933.35
2018-09-09T05:13:26.625Z,933.32
2018-09-09T05:14:26.607Z,933.29
2018-09-09T05:15:26.552Z,933.32
2018-09-09T05:16:26.495Z,933.31
2018-09-09T05:17:26.452Z,933.29
2018-09-09T05:18:26.404Z,933.30
2018-09-09T05:19:26.348Z,933.28
2018-09-09T05:20:26.317Z,933.30
2018-09-09T05:21:26.261Z,933.27
2018-09-09T05:22:26.221Z,933.29
2018-09-09T05:23:26.163Z,933.28
2018-09-09T05:24:26.121Z,933.23
2018-09-09T05:25:26.070Z,933.27
2018-09-09T05:26:26.022Z,933.20
2018-09-09T05:27:25.971Z,933.21
2018-09-09T05:28:25.934Z,933.19
2018-09-09T05:29:25.876Z,933.19
2018-09-09T05:30:25.826Z,933.19
2018-09-09T05:31:25.779Z,933.22
2018-09-09T05:32:25.736Z,933.17
2018-09-09T05:33:25.675Z,933.18
2018-09-09T05:34:25.644Z,933.16
2018-09-09T05:35:25.585Z,933.16
2018-09-09T05:36:25.537Z,933.18
2018-09-09T05:37:25.488Z,933.17
2018-09-09T05:38:25.442Z,933.14
2018-09-09T05:39:25.393Z,933.12
2018-09-09T05:40:25.351Z,933.09
2018-09-09T05:41:25.294Z,933.08
2018-09-09T05:42:25.377Z,933.12
2018-09-09T05:43:25.195Z,933.03
2018-09-09T05:44:25.147Z,933.04
2018-09-09T05:45:25.098Z,933.00
2018-09-09T05:46:25.052Z,933.04
2018-09-09T05:47:25.009Z,933.05
2018-09-09T05:48:24.961Z,932.98
2018-09-09T05:49:24.903Z,932.98
2018-09-09T05:50:24.870Z,933.03
2018-09-09T05:51:24.816Z,933.02
2018-09-09T05:52:24.767Z,933.04
2018-09-09T05:53:24.752Z,932.99
2018-09-09T05:54:24.672Z,932.95
2018-09-09T05:55:24.623Z,932.93
2018-09-09T05:56:24.577Z,932.90
2018-09-09T05:57:24.583Z,932.95
2018-09-09T05:58:24.477Z,932.90
2018-09-09T05:59:24.439Z,932.93
2018-09-09T06:00:24.395Z,932.90
2018-09-09T06:01:24.332Z,932.89
2018-09-09T06:02:24.305Z,932.88
2018-09-09T06:03:24.233Z,932.87
2018-09-09T06:04:24.190Z,932.89
2018-09-09T06:05:24.143Z,932.92
2018-09-09T06:06:24.095Z,932.86
2018-09-09T06:07:24.046Z,932.85
2018-09-09T06:08:23.994Z,932.85
2018-09-09T06:09:23.948Z,932.84
2018-09-09T06:10:23.908Z,932.85
2018-09-09T06:11:23.860Z,932.83
2018-09-09T06:12:23.792Z,932.86
2018-09-09T06:13:23.738Z,932.84
2018-09-09T06:14:23.696Z,932.87
2018-09-09T06:15:23.679Z,932.87
2018-09-09T06:16:23.619Z,932.84
2018-09-09T06:17:23.564Z,932.79
2018-09-09T06:18:23.519Z,932.84
2018-09-09T06:19:23.470Z,932.80
2018-09-09T06:20:23.441Z,932.79
2018-09-09T06:21:23.379Z,932.82
2018-09-09T06:22:23.330Z,932.81
2018-09-09T06:23:23.260Z,932.81
2018-09-09T06:24:23.228Z,932.79
2018-09-09T06:25:23.179Z,932.83
2018-09-09T06:26:23.129Z,932.86
2018-09-09T06:27:23.084Z,932.85
2018-09-09T06:28:23.089Z,932.86
2018-09-09T06:29:22.986Z,932.86
2018-09-09T06:30:22.934Z,932.82
2018-09-09T06:31:22.879Z,932.82
2018-09-09T06:32:22.837Z,932.85
2018-09-09T06:33:22.805Z,932.80
2018-09-09T06:34:22.733Z,932.79
2018-09-09T06:35:22.728Z,932.82
2018-09-09T06:36:22.649Z,932.77
2018-09-09T06:37:22.613Z,932.76
2018-09-09T06:38:22.553Z,932.73
2018-09-09T06:39:22.505Z,932.73
2018-09-09T06:40:22.456Z,932.76
2018-09-09T06:41:22.408Z,932.78
2018-09-09T06:42:22.343Z,932.77
2018-09-09T06:43:22.312Z,932.77
2018-09-09T06:44:22.268Z,932.79
2018-09-09T06:45:22.213Z,932.75
2018-09-09T06:46:22.187Z,932.80
2018-09-09T06:47:22.117Z,932.80
2018-09-09T06:48:22.062Z,932.84
2018-09-09T06:49:22.005Z,932.84
2018-09-09T06:50:21.974Z,932.86
2018-09-09T06:51:21.945Z,932.88
2018-09-09T06:52:21.875Z,932.82
2018-09-09T06:53:21.828Z,932.89
2018-09-09T06:54:21.781Z,932.89
2018-09-09T06:55:21.740Z,932.87
2018-09-09T06:56:21.684Z,932.88
2018-09-09T06:57:21.644Z,932.88
2018-09-09T06:58:21.587Z,932.91
2018-09-09T06:59:21.523Z,932.87
2018-09-09T07:00:21.489Z,932.89
2018-09-09T07:01:21.441Z,932.90
2018-09-09T07:02:21.421Z,932.82
2018-09-09T07:03:21.349Z,932.84
2018-09-09T07:04:21.291Z,932.94
2018-09-09T07:05:21.238Z,932.89
2018-09-09T07:06:21.198Z,932.89
2018-09-09T07:07:21.151Z,932.89
2018-09-09T07:08:21.086Z,932.88
2018-09-09T07:09:21.057Z,932.89
2018-09-09T07:10:20.995Z,932.89
2018-09-09T07:11:21.040Z,932.88
2018-09-09T07:12:20.905Z,932.87
2018-09-09T07:13:20.879Z,932.82
2018-09-09T07:14:20.800Z,932.83
2018-09-09T07:15:20.763Z,932.86
2018-09-09T07:16:20.720Z,932.82
2018-09-09T07:17:20.663Z,932.90
2018-09-09T07:18:20.614Z,932.86
2018-09-09T07:19:20.562Z,932.86
2018-09-09T07:20:20.514Z,932.86
2018-09-09T07:21:20.473Z,932.86
2018-09-09T07:22:20.420Z,932.85
2018-09-09T07:23:20.375Z,932.83
2018-09-09T07:24:20.331Z,932.82
2018-09-09T07:25:20.281Z,932.85
2018-09-09T07:26:20.229Z,932.83
2018-09-09T07:27:20.178Z,932.80
2018-09-09T07:28:20.118Z,932.84
2018-09-09T07:29:20.080Z,932.85
2018-09-09T07:30:20.016Z,932.85
2018-09-09T07:31:19.998Z,932.84
2018-09-09T07:32:19.939Z,932.91
2018-09-09T07:33:19.901Z,932.87
2018-09-09T07:34:19.942Z,932.85
2018-09-09T07:35:19.796Z,932.87
2018-09-09T07:36:19.741Z,932.82
2018-09-09T07:37:19.725Z,932.86
2018-09-09T07:38:20.179Z,932.90
2018-09-09T07:39:19.590Z,932.89
2018-09-09T07:40:19.534Z,932.88
2018-09-09T07:41:19.503Z,932.89
2018-09-09T07:42:19.453Z,932.87
2018-09-09T07:43:19.397Z,932.83
2018-09-09T07:44:19.387Z,932.81
2018-09-09T07:45:19.299Z,932.81
2018-09-09T07:46:19.257Z,932.89
2018-09-09T07:47:19.199Z,932.86
2018-09-09T07:48:19.170Z,932.86
2018-09-09T07:49:19.095Z,932.90
2018-09-09T07:50:19.077Z,932.96
2018-09-09T07:51:19.023Z,932.98
2018-09-09T07:52:18.964Z,932.98
2018-09-09T07:53:18.924Z,933.03
2018-09-09T07:54:18.861Z,933.03
2018-09-09T07:55:18.817Z,933.06
2018-09-09T07:56:18.769Z,933.10
2018-09-09T07:57:18.730Z,933.10
2018-09-09T07:58:18.673Z,933.10
2018-09-09T07:59:18.623Z,933.14
2018-09-09T08:00:18.564Z,933.14
2018-09-09T08:01:18.530Z,933.21
2018-09-09T08:02:18.481Z,933.21
2018-09-09T08:03:18.430Z,933.22
2018-09-09T08:04:18.381Z,933.22
2018-09-09T08:05:18.330Z,933.24
2018-09-09T08:06:18.331Z,933.26
2018-09-09T08:07:18.225Z,933.24
2018-09-09T08:08:18.185Z,933.19
2018-09-09T08:09:18.128Z,933.18
2018-09-09T08:10:18.078Z,933.19
2018-09-09T08:11:18.047Z,933.20
2018-09-09T08:12:18.017Z,933.22
2018-09-09T08:13:17.948Z,933.20
2018-09-09T08:14:17.900Z,933.20
2018-09-09T08:15:17.833Z,933.19
2018-09-09T08:16:17.799Z,933.20
2018-09-09T08:17:17.753Z,933.23
2018-09-09T08:18:17.820Z,933.20
2018-09-09T08:19:17.656Z,933.26
2018-09-09T08:20:17.607Z,933.23
2018-09-09T08:21:17.569Z,933.27
2018-09-09T08:22:17.511Z,933.33
2018-09-09T08:23:17.464Z,933.33
2018-09-09T08:24:17.407Z,933.35
2018-09-09T08:25:17.370Z,933.36
2018-09-09T08:26:17.316Z,933.33
2018-09-09T08:27:17.270Z,933.37
2018-09-09T08:28:17.225Z,933.40
2018-09-09T08:29:17.165Z,933.39
2018-09-09T08:30:17.121Z,933.45
2018-09-09T08:31:17.072Z,933.42
2018-09-09T08:32:17.027Z,933.42
2018-09-09T08:33:16.978Z,933.46
2018-09-09T08:34:16.931Z,933.40
2018-09-09T08:35:16.872Z,933.43
2018-09-09T08:36:16.833Z,933.45
2018-09-09T08:37:16.768Z,933.41
2018-09-09T08:38:16.726Z,933.40
2018-09-09T08:39:16.687Z,933.41
2018-09-09T08:40:16.637Z,933.40
2018-09-09T08:41:16.582Z,933.44
2018-09-09T08:42:17.070Z,933.48
2018-09-09T08:43:16.494Z,933.53
2018-09-09T08:44:16.437Z,933.57
2018-09-09T08:45:16.388Z,933.57
2018-09-09T08:46:16.342Z,933.62
2018-09-09T08:47:16.288Z,933.61
2018-09-09T08:48:16.246Z,933.56
2018-09-09T08:49:16.192Z,933.58
2018-09-09T08:50:16.155Z,933.55
2018-09-09T08:51:16.099Z,933.60
2018-09-09T08:52:16.155Z,933.62
2018-09-09T08:53:16.000Z,933.65
2018-09-09T08:54:15.947Z,933.70
2018-09-09T08:55:15.904Z,933.70
2018-09-09T08:56:15.856Z,933.74
2018-09-09T08:57:15.801Z,933.71
2018-09-09T08:58:15.757Z,933.74
2018-09-09T08:59:15.705Z,933.75
2018-09-09T09:00:15.674Z,933.75
2018-09-09T09:01:15.596Z,933.74
2018-09-09T09:02:15.562Z,933.78
2018-09-09T09:03:15.516Z,933.79
2018-09-09T09:04:15.469Z,933.81
2018-09-09T09:05:15.415Z,933.84
2018-09-09T09:06:15.369Z,933.88
2018-09-09T09:07:15.379Z,933.86
2018-09-09T09:08:15.288Z,933.82
2018-09-09T09:09:15.219Z,933.85
2018-09-09T09:10:15.172Z,933.81
2018-09-09T09:11:15.119Z,933.87
2018-09-09T09:12:15.078Z,933.91
2018-09-09T09:13:15.023Z,933.93
2018-09-09T09:14:14.978Z,933.91
2018-09-09T09:15:14.936Z,933.94
2018-09-09T09:16:14.876Z,933.89
2018-09-09T09:17:14.833Z,933.92
2018-09-09T09:18:14.780Z,933.93
2018-09-09T09:19:14.731Z,933.95
2018-09-09T09:20:14.687Z,933.96
2018-09-09T09:21:14.635Z,933.96
2018-09-09T09:22:14.582Z,933.97
2018-09-09T09:23:14.530Z,933.95
2018-09-09T09:24:14.488Z,934.00
2018-09-09T09:25:14.445Z,934.02
2018-09-09T09:26:14.396Z,934.01
2018-09-09T09:27:14.355Z,933.99
2018-09-09T09:28:14.293Z,934.00
2018-09-09T09:29:14.251Z,933.97
2018-09-09T09:30:14.199Z,933.92
2018-09-09T09:31:14.152Z,933.92
2018-09-09T09:32:14.100Z,933.98
2018-09-09T09:33:14.064Z,934.03
2018-09-09T09:34:14.010Z,934.00
2018-09-09T09:35:13.964Z,934.04
2018-09-09T09:36:13.918Z,934.05
2018-09-09T09:37:13.867Z,934.09
2018-09-09T09:38:13.803Z,934.09
2018-09-09T09:39:13.771Z,934.09
2018-09-09T09:40:13.699Z,934.11
2018-09-09T09:41:13.677Z,934.13
2018-09-09T09:42:13.621Z,934.14
2018-09-09T09:43:13.561Z,934.16
2018-09-09T09:44:13.523Z,934.19
2018-09-09T09:45:13.466Z,934.21
2018-09-09T09:46:13.421Z,934.18
2018-09-09T09:47:13.367Z,934.22
2018-09-09T09:48:13.325Z,934.17
2018-09-09T09:49:13.270Z,934.22
2018-09-09T09:50:13.227Z,934.23
2018-09-09T09:51:13.160Z,934.19
2018-09-09T09:52:13.124Z,934.22
2018-09-09T09:53:13.148Z,934.25
2018-09-09T09:54:13.036Z,934.25
2018-09-09T09:55:13.089Z,934.28
2018-09-09T09:56:12.942Z,934.31
2018-09-09T09:57:12.888Z,934.37
2018-09-09T09:58:12.836Z,934.38
2018-09-09T09:59:12.796Z,934.40
2018-09-09T10:00:12.737Z,934.40
2018-09-09T10:01:12.691Z,934.41
2018-09-09T10:02:12.663Z,934.39
2018-09-09T10:03:12.600Z,934.39
2018-09-09T10:04:12.558Z,934.41
2018-09-09T10:05:12.504Z,934.45
2018-09-09T10:06:12.457Z,934.47
2018-09-09T10:07:12.409Z,934.48
2018-09-09T10:08:12.355Z,934.47
2018-09-09T10:09:12.394Z,934.52
2018-09-09T10:10:12.254Z,934.44
2018-09-09T10:11:12.219Z,934.48
2018-09-09T10:12:12.173Z,934.47
2018-09-09T10:13:12.115Z,934.50
2018-09-09T10:14:12.063Z,934.53
2018-09-09T10:15:12.087Z,934.58
2018-09-09T10:16:11.974Z,934.55
2018-09-09T10:17:11.918Z,934.56
2018-09-09T10:18:11.861Z,934.57
2018-09-09T10:19:11.831Z,934.61
2018-09-09T10:20:11.789Z,934.60
2018-09-09T10:21:11.733Z,934.64
2018-09-09T10:22:11.668Z,934.61
2018-09-09T10:23:11.635Z,934.64
2018-09-09T10:24:11.587Z,934.65
2018-09-09T10:25:11.540Z,934.69
2018-09-09T10:26:11.490Z,934.67
2018-09-09T10:27:11.448Z,934.70
2018-09-09T10:28:11.403Z,934.67
2018-09-09T10:29:11.340Z,934.67
2018-09-09T10:30:11.384Z,934.67
2018-09-09T10:31:11.252Z,934.67
2018-09-09T10:32:11.213Z,934.71
2018-09-09T10:33:11.153Z,934.75
2018-09-09T10:34:11.104Z,934.76
2018-09-09T10:35:11.058Z,934.76
2018-09-09T10:36:11.008Z,934.78
2018-09-09T10:37:10.969Z,934.79
2018-09-09T10:38:10.915Z,934.81
2018-09-09T10:39:10.850Z,934.85
2018-09-09T10:40:10.830Z,934.90
2018-09-09T10:41:10.776Z,934.89
2018-09-09T10:42:10.725Z,934.88
2018-09-09T10:43:10.667Z,934.89
2018-09-09T10:44:10.622Z,934.96
2018-09-09T10:45:10.575Z,934.96
2018-09-09T10:46:10.565Z,935.00
2018-09-09T10:47:10.597Z,934.96
2018-09-09T10:48:10.435Z,934.96
2018-09-09T10:49:10.399Z,934.92
2018-09-09T10:50:10.335Z,934.98
2018-09-09T10:51:10.271Z,934.98
2018-09-09T10:52:10.240Z,934.99
2018-09-09T10:53:10.202Z,935.06
2018-09-09T10:54:10.137Z,935.04
2018-09-09T10:55:10.099Z,935.10
2018-09-09T10:56:10.041Z,935.13
2018-09-09T10:57:09.995Z,935.12
2018-09-09T10:58:09.954Z,935.15
2018-09-09T10:59:09.904Z,935.13
2018-09-09T11:00:09.856Z,935.14
2018-09-09T11:01:09.911Z,935.18
2018-09-09T11:02:09.759Z,935.20
2018-09-09T11:03:09.707Z,935.23
2018-09-09T11:04:09.672Z,935.25
2018-09-09T11:05:09.615Z,935.25
2018-09-09T11:06:09.568Z,935.23
2018-09-09T11:07:09.521Z,935.18
2018-09-09T11:08:09.470Z,935.19
2018-09-09T11:09:09.428Z,935.15
2018-09-09T11:10:09.374Z,935.21
2018-09-09T11:11:09.328Z,935.25
2018-09-09T11:12:09.280Z,935.26
2018-09-09T11:13:09.234Z,935.30
2018-09-09T11:14:09.169Z,935.32
2018-09-09T11:15:09.136Z,935.28
2018-09-09T11:16:09.082Z,935.32
2018-09-09T11:17:09.047Z,935.31
2018-09-09T11:18:08.977Z,935.35
2018-09-09T11:19:08.942Z,935.37
2018-09-09T11:20:08.891Z,935.41
2018-09-09T11:21:08.849Z,935.40
2018-09-09T11:22:08.799Z,935.44
2018-09-09T11:23:08.756Z,935.46
2018-09-09T11:24:08.752Z,935.41
2018-09-09T11:25:08.643Z,935.48
2018-09-09T11:26:08.592Z,935.46
2018-09-09T11:27:08.561Z,935.46
2018-09-09T11:28:08.513Z,935.49
2018-09-09T11:29:08.449Z,935.52
2018-09-09T11:30:08.429Z,935.55
2018-09-09T11:31:08.373Z,935.53
2018-09-09T11:32:08.333Z,935.54
2018-09-09T11:33:08.280Z,935.53
2018-09-09T11:34:08.232Z,935.52
2018-09-09T11:35:08.187Z,935.55
2018-09-09T11:36:08.139Z,935.59
2018-09-09T11:37:08.083Z,935.61
2018-09-09T11:38:08.038Z,935.58
2018-09-09T11:39:07.989Z,935.53
2018-09-09T11:40:07.945Z,935.56
2018-09-09T11:41:07.905Z,935.58
2018-09-09T11:42:07.843Z,935.52
2018-09-09T11:43:07.792Z,935.52
2018-09-09T11:44:07.754Z,935.51
2018-09-09T11:45:07.702Z,935.52
2018-09-09T11:46:07.652Z,935.52
2018-09-09T11:47:07.604Z,935.60
2018-09-09T11:48:07.558Z,935.61
2018-09-09T11:49:07.522Z,935.61
2018-09-09T11:50:07.475Z,935.61
2018-09-09T11:51:07.416Z,935.63
2018-09-09T11:52:07.364Z,935.61
2018-09-09T11:53:07.376Z,935.60
2018-09-09T11:54:07.279Z,935.60
2018-09-09T11:55:07.230Z,935.58
2018-09-09T11:56:07.163Z,935.60
2018-09-09T11:57:07.124Z,935.59
2018-09-09T11:58:07.064Z,935.65
2018-09-09T11:59:07.033Z,935.71
2018-09-09T12:00:06.986Z,935.72
2018-09-09T12:01:06.940Z,935.70
2018-09-09T12:02:06.920Z,935.72
2018-09-09T12:03:06.851Z,935.72
2018-09-09T12:04:06.808Z,935.76
2018-09-09T12:05:06.749Z,935.75
2018-09-09T12:06:06.704Z,935.78
2018-09-09T12:07:06.658Z,935.85
2018-09-09T12:08:06.610Z,935.84
2018-09-09T12:09:06.559Z,935.88
2018-09-09T12:10:06.517Z,935.83
2018-09-09T12:11:06.467Z,935.79
2018-09-09T12:12:06.416Z,935.84
2018-09-09T12:13:06.368Z,935.87
2018-09-09T12:14:06.322Z,935.86
2018-09-09T12:15:06.273Z,935.80
2018-09-09T12:16:06.220Z,935.84
2018-09-09T12:17:06.179Z,935.80
2018-09-09T12:18:06.139Z,935.85
2018-09-09T12:19:06.071Z,935.87
2018-09-09T12:20:06.040Z,935.89
2018-09-09T12:21:05.996Z,935.82
2018-09-09T12:22:05.942Z,935.87
2018-09-09T12:23:05.895Z,935.88
2018-09-09T12:24:05.851Z,935.84
2018-09-09T12:25:05.811Z,935.84
2018-09-09T12:26:05.744Z,935.83
2018-09-09T12:27:05.711Z,935.83
2018-09-09T12:28:05.663Z,935.88